sensor_id;sensor_type;location;lat;lon;timestamp;pressure;altitude;pressure_sealevel;temperature;humidity
69316;BME280;56445;43.552;5.034;2022-07-09T08:19:37;101944.75;;;41.37;15.97
69316;BME280;56445;43.552;5.034;2022-07-09T08:22:04;101942.44;;;41.53;15.92
69316;BME280;56445;43.552;5.034;2022-07-09T08:24:32;101939.22;;;41.58;15.72
69316;BME280;56445;43.552;5.034;2022-07-09T08:26:59;101946.97;;;41.61;15.83
69316;BME280;56445;43.552;5.034;2022-07-09T08:29:26;101934.84;;;41.65;15.82
69316;BME280;56445;43.552;5.034;2022-07-09T08:31:53;101950.72;;;41.80;15.82
69316;BME280;56445;43.552;5.034;2022-07-09T08:34:20;101948.72;;;41.88;15.79
69316;BME280;56445;43.552;5.034;2022-07-09T08:36:48;101929.25;;;41.83;15.78
69316;BME280;56445;43.552;5.034;2022-07-09T08:39:15;101949.97;;;41.97;15.90
69316;BME280;56445;43.552;5.034;2022-07-09T08:41:42;101934.16;;;41.89;15.71
69316;BME280;56445;43.552;5.034;2022-07-09T08:44:11;101941.53;;;42.05;15.74
69316;BME280;56445;43.552;5.034;2022-07-09T08:46:39;101943.16;;;42.09;15.88
69316;BME280;56445;43.552;5.034;2022-07-09T08:49:07;101944.78;;;42.14;15.90
69316;BME280;56445;43.552;5.034;2022-07-09T08:51:35;101942.78;;;42.18;16.00
69316;BME280;56445;43.552;5.034;2022-07-09T08:54:07;101923.75;;;42.15;15.92
69316;BME280;56445;43.552;5.034;2022-07-09T08:56:34;101924.16;;;42.20;15.89
69316;BME280;56445;43.552;5.034;2022-07-09T08:59:01;101940.81;;;42.36;15.86
69316;BME280;56445;43.552;5.034;2022-07-09T09:01:28;101923.78;;;42.29;15.56
69316;BME280;56445;43.552;5.034;2022-07-09T09:03:56;101925.00;;;42.32;15.98
69316;BME280;56445;43.552;5.034;2022-07-09T09:06:23;101937.22;;;42.47;15.91
69316;BME280;56445;43.552;5.034;2022-07-09T09:08:54;101922.59;;;42.41;15.68
69316;BME280;56445;43.552;5.034;2022-07-09T09:11:24;101941.28;;;42.56;15.91
69316;BME280;56445;43.552;5.034;2022-07-09T09:13:51;101921.41;;;42.46;15.67
69316;BME280;56445;43.552;5.034;2022-07-09T09:16:20;101924.25;;;42.56;15.89
69316;BME280;56445;43.552;5.034;2022-07-09T09:18:50;101923.03;;;42.61;15.83
69316;BME280;56445;43.552;5.034;2022-07-09T09:21:22;101933.19;;;42.73;15.81
69316;BME280;56445;43.552;5.034;2022-07-09T09:23:51;101928.34;;;42.70;15.78
69316;BME280;56445;43.552;5.034;2022-07-09T09:26:26;101932.34;;;42.79;15.88
69316;BME280;56445;43.552;5.034;2022-07-09T09:28:58;101926.69;;;42.83;15.77
69316;BME280;56445;43.552;5.034;2022-07-09T09:31:30;101926.28;;;42.85;15.58
69316;BME280;56445;43.552;5.034;2022-07-09T09:34:12;101913.72;;;42.86;15.80
69316;BME280;56445;43.552;5.034;2022-07-09T09:36:41;101914.56;;;43.01;15.60
69316;BME280;56445;43.552;5.034;2022-07-09T09:39:17;101910.50;;;42.98;15.66
69316;BME280;56445;43.552;5.034;2022-07-09T09:41:50;101904.78;;;43.09;15.56
69316;BME280;56445;43.552;5.034;2022-07-09T09:44:22;101883.72;;;43.06;15.70
69316;BME280;56445;43.552;5.034;2022-07-09T09:46:58;101900.31;;;43.26;15.89
69316;BME280;56445;43.552;5.034;2022-07-09T09:49:30;101889.78;;;43.33;16.01
69316;BME280;56445;43.552;5.034;2022-07-09T09:54:35;101911.97;;;43.67;15.55
69316;BME280;56445;43.552;5.034;2022-07-09T09:57:09;101895.34;;;43.66;15.65
69316;BME280;56445;43.552;5.034;2022-07-09T09:59:38;101893.28;;;43.81;15.92
69316;BME280;56445;43.552;5.034;2022-07-09T10:02:06;101895.25;;;43.94;15.89
69316;BME280;56445;43.552;5.034;2022-07-09T10:04:37;101910.56;;;44.19;15.81
69316;BME280;56445;43.552;5.034;2022-07-09T10:07:05;101900.38;;;44.25;15.68
69316;BME280;56445;43.552;5.034;2022-07-09T10:09:33;101900.22;;;44.43;15.67
69316;BME280;56445;43.552;5.034;2022-07-09T10:12:02;101896.53;;;44.53;15.57
69316;BME280;56445;43.552;5.034;2022-07-09T10:14:31;101889.50;;;44.68;15.62
69316;BME280;56445;43.552;5.034;2022-07-09T10:17:10;101917.63;;;45.08;15.92
69316;BME280;56445;43.552;5.034;2022-07-09T10:19:56;101908.50;;;45.27;15.88
69316;BME280;56445;43.552;5.034;2022-07-09T10:22:38;101909.84;;;45.50;15.66
69316;BME280;56445;43.552;5.034;2022-07-09T10:25:11;101901.44;;;45.74;15.96
69316;BME280;56445;43.552;5.034;2022-07-09T10:27:47;101885.81;;;45.85;15.76
69316;BME280;56445;43.552;5.034;2022-07-09T10:30:30;101890.63;;;46.19;15.79
69316;BME280;56445;43.552;5.034;2022-07-09T10:33:03;101875.66;;;46.39;15.72
69316;BME280;56445;43.552;5.034;2022-07-09T10:35:31;101901.16;;;46.77;15.58
69316;BME280;56445;43.552;5.034;2022-07-09T10:37:58;101889.34;;;46.98;15.54
69316;BME280;56445;43.552;5.034;2022-07-09T10:40:25;101882.13;;;47.14;15.85
69316;BME280;56445;43.552;5.034;2022-07-09T10:43:01;101872.41;;;47.31;15.98
69316;BME280;56445;43.552;5.034;2022-07-09T10:48:03;101889.13;;;47.73;15.23
69316;BME280;56445;43.552;5.034;2022-07-09T10:50:32;101891.22;;;47.89;15.26
69316;BME280;56445;43.552;5.034;2022-07-09T10:53:00;101865.47;;;47.89;15.45
69316;BME280;56445;43.552;5.034;2022-07-09T10:55:29;101879.13;;;48.17;15.08
69316;BME280;56445;43.552;5.034;2022-07-09T10:57:57;101852.13;;;48.18;15.36
69316;BME280;56445;43.552;5.034;2022-07-09T11:00:29;101861.47;;;48.39;15.15
69316;BME280;56445;43.552;5.034;2022-07-09T11:03:05;101857.88;;;48.51;15.39
69316;BME280;56445;43.552;5.034;2022-07-09T11:05:45;101867.97;;;48.72;14.82
69316;BME280;56445;43.552;5.034;2022-07-09T11:08:13;101867.88;;;48.76;15.09
69316;BME280;56445;43.552;5.034;2022-07-09T11:10:40;101874.81;;;48.91;14.98
69316;BME280;56445;43.552;5.034;2022-07-09T11:13:14;101869.53;;;49.06;15.27
69316;BME280;56445;43.552;5.034;2022-07-09T11:15:41;101852.34;;;49.06;15.10
69316;BME280;56445;43.552;5.034;2022-07-09T11:18:11;101862.38;;;49.27;15.10
69316;BME280;56445;43.552;5.034;2022-07-09T11:20:44;101872.72;;;49.37;14.98
69316;BME280;56445;43.552;5.034;2022-07-09T11:23:13;101849.22;;;49.30;14.97
69316;BME280;56445;43.552;5.034;2022-07-09T11:25:42;101854.28;;;49.51;14.68
69316;BME280;56445;43.552;5.034;2022-07-09T11:28:22;101855.81;;;49.56;14.97
69316;BME280;56445;43.552;5.034;2022-07-09T11:31:04;101840.53;;;49.46;14.63
69316;BME280;56445;43.552;5.034;2022-07-09T11:33:32;101857.19;;;49.64;14.87
69316;BME280;56445;43.552;5.034;2022-07-09T11:36:19;101847.09;;;49.59;14.64
69316;BME280;56445;43.552;5.034;2022-07-09T11:38:52;101857.22;;;49.77;14.72
69316;BME280;56445;43.552;5.034;2022-07-09T11:41:20;101838.06;;;49.74;14.41
69316;BME280;56445;43.552;5.034;2022-07-09T11:44:05;101822.94;;;49.73;14.27
69316;BME280;56445;43.552;5.034;2022-07-09T11:46:41;101816.94;;;49.80;14.29
69316;BME280;56445;43.552;5.034;2022-07-09T11:49:18;101820.84;;;49.87;14.38
69316;BME280;56445;43.552;5.034;2022-07-09T11:51:45;101806.16;;;49.85;14.12
69316;BME280;56445;43.552;5.034;2022-07-09T11:54:26;101810.31;;;49.84;14.43
69316;BME280;56445;43.552;5.034;2022-07-09T11:56:54;101808.13;;;49.88;14.54
69316;BME280;56445;43.552;5.034;2022-07-09T11:59:28;101808.00;;;49.91;14.03
69316;BME280;56445;43.552;5.034;2022-07-09T12:01:59;101804.69;;;49.93;14.36
69316;BME280;56445;43.552;5.034;2022-07-09T12:04:29;101829.13;;;50.10;14.30
69316;BME280;56445;43.552;5.034;2022-07-09T12:07:00;101806.63;;;50.09;14.33
69316;BME280;56445;43.552;5.034;2022-07-09T12:09:31;101791.09;;;50.06;13.94
69316;BME280;56445;43.552;5.034;2022-07-09T12:11:59;101785.50;;;50.15;13.96
69316;BME280;56445;43.552;5.034;2022-07-09T12:14:27;101796.94;;;50.28;13.82
69316;BME280;56445;43.552;5.034;2022-07-09T12:16:54;101782.44;;;50.32;14.03
69316;BME280;56445;43.552;5.034;2022-07-09T12:19:21;101782.88;;;50.43;13.95
69316;BME280;56445;43.552;5.034;2022-07-09T12:21:48;101787.13;;;50.51;14.30
69316;BME280;56445;43.552;5.034;2022-07-09T12:24:23;101786.88;;;50.58;13.96
69316;BME280;56445;43.552;5.034;2022-07-09T12:26:51;101772.97;;;50.57;14.03
69316;BME280;56445;43.552;5.034;2022-07-09T12:29:39;101792.22;;;50.69;14.02
69316;BME280;56445;43.552;5.034;2022-07-09T12:32:09;101789.53;;;50.75;13.77
69316;BME280;56445;43.552;5.034;2022-07-09T12:34:36;101775.81;;;50.70;13.91
69316;BME280;56445;43.552;5.034;2022-07-09T12:37:08;101759.81;;;50.69;13.56
69316;BME280;56445;43.552;5.034;2022-07-09T12:39:35;101780.25;;;50.84;13.98
69316;BME280;56445;43.552;5.034;2022-07-09T12:42:03;101772.09;;;50.82;13.65
69316;BME280;56445;43.552;5.034;2022-07-09T12:44:30;101760.13;;;50.84;14.00
69316;BME280;56445;43.552;5.034;2022-07-09T12:47:06;101754.88;;;50.91;13.72
69316;BME280;56445;43.552;5.034;2022-07-09T12:49:34;101751.88;;;50.95;13.66
69316;BME280;56445;43.552;5.034;2022-07-09T12:52:01;101749.22;;;51.01;13.88
69316;BME280;56445;43.552;5.034;2022-07-09T12:54:28;101770.06;;;51.14;13.67
69316;BME280;56445;43.552;5.034;2022-07-09T12:56:58;101763.22;;;51.21;13.62
69316;BME280;56445;43.552;5.034;2022-07-09T12:59:35;101776.69;;;51.33;13.75
69316;BME280;56445;43.552;5.034;2022-07-09T13:02:05;101772.09;;;51.35;13.48
69316;BME280;56445;43.552;5.034;2022-07-09T13:04:33;101742.13;;;51.14;13.72
69316;BME280;56445;43.552;5.034;2022-07-09T13:07:01;101761.22;;;51.08;13.53
69316;BME280;56445;43.552;5.034;2022-07-09T13:09:29;101766.41;;;51.13;13.76
69316;BME280;56445;43.552;5.034;2022-07-09T13:11:56;101760.31;;;51.11;13.52
69316;BME280;56445;43.552;5.034;2022-07-09T13:14:25;101763.63;;;51.10;13.33
69316;BME280;56445;43.552;5.034;2022-07-09T13:16:52;101739.59;;;50.94;13.30
69316;BME280;56445;43.552;5.034;2022-07-09T13:19:40;101755.34;;;51.12;13.35
69316;BME280;56445;43.552;5.034;2022-07-09T13:22:07;101733.72;;;50.98;13.33
69316;BME280;56445;43.552;5.034;2022-07-09T13:24:38;101757.47;;;51.21;13.47
69316;BME280;56445;43.552;5.034;2022-07-09T13:27:06;101755.25;;;51.15;13.44
69316;BME280;56445;43.552;5.034;2022-07-09T13:29:36;101740.00;;;51.06;13.82
69316;BME280;56445;43.552;5.034;2022-07-09T13:32:04;101729.56;;;50.99;13.44
69316;BME280;56445;43.552;5.034;2022-07-09T13:34:33;101746.00;;;50.98;13.36
69316;BME280;56445;43.552;5.034;2022-07-09T13:37:00;101760.84;;;50.97;13.35
69316;BME280;56445;43.552;5.034;2022-07-09T13:39:28;101750.81;;;50.79;13.40
69316;BME280;56445;43.552;5.034;2022-07-09T13:41:55;101723.81;;;50.55;13.64
69316;BME280;56445;43.552;5.034;2022-07-09T13:44:22;101725.91;;;50.42;13.43
69316;BME280;56445;43.552;5.034;2022-07-09T13:46:49;101719.91;;;50.27;13.47
69316;BME280;56445;43.552;5.034;2022-07-09T13:49:17;101716.16;;;50.17;13.42
69316;BME280;56445;43.552;5.034;2022-07-09T13:51:49;101709.75;;;50.00;13.77
69316;BME280;56445;43.552;5.034;2022-07-09T13:54:16;101703.22;;;49.87;13.50
69316;BME280;56445;43.552;5.034;2022-07-09T13:56:45;101708.97;;;49.87;13.63
69316;BME280;56445;43.552;5.034;2022-07-09T13:59:12;101714.63;;;49.77;13.85
69316;BME280;56445;43.552;5.034;2022-07-09T14:01:39;101699.13;;;49.62;13.57
69316;BME280;56445;43.552;5.034;2022-07-09T14:04:07;101697.19;;;49.46;13.69
69316;BME280;56445;43.552;5.034;2022-07-09T14:06:34;101701.56;;;49.38;13.38
69316;BME280;56445;43.552;5.034;2022-07-09T14:09:12;101705.19;;;49.26;13.52
69316;BME280;56445;43.552;5.034;2022-07-09T14:11:39;101701.41;;;49.16;13.79
69316;BME280;56445;43.552;5.034;2022-07-09T14:14:07;101674.31;;;48.91;13.60
69316;BME280;56445;43.552;5.034;2022-07-09T14:16:34;101680.03;;;48.91;13.70
69316;BME280;56445;43.552;5.034;2022-07-09T14:19:02;101664.66;;;48.85;13.62
69316;BME280;56445;43.552;5.034;2022-07-09T14:21:29;101655.13;;;48.75;13.62
69316;BME280;56445;43.552;5.034;2022-07-09T14:23:56;101673.00;;;48.79;13.98
69316;BME280;56445;43.552;5.034;2022-07-09T14:26:23;101667.41;;;48.76;13.58
69316;BME280;56445;43.552;5.034;2022-07-09T14:28:51;101675.53;;;48.77;13.96
69316;BME280;56445;43.552;5.034;2022-07-09T14:31:18;101654.09;;;48.69;13.74
69316;BME280;56445;43.552;5.034;2022-07-09T14:33:46;101637.91;;;48.62;13.91
69316;BME280;56445;43.552;5.034;2022-07-09T14:36:13;101646.84;;;48.64;13.74
69316;BME280;56445;43.552;5.034;2022-07-09T14:38:40;101659.03;;;48.69;13.91
69316;BME280;56445;43.552;5.034;2022-07-09T14:41:08;101648.09;;;48.63;13.85
69316;BME280;56445;43.552;5.034;2022-07-09T14:43:35;101641.78;;;48.56;13.43
69316;BME280;56445;43.552;5.034;2022-07-09T14:46:02;101638.47;;;48.57;13.79
69316;BME280;56445;43.552;5.034;2022-07-09T14:48:30;101638.13;;;48.55;13.75
69316;BME280;56445;43.552;5.034;2022-07-09T14:50:57;101647.41;;;48.59;13.43
69316;BME280;56445;43.552;5.034;2022-07-09T14:53:26;101634.56;;;48.51;13.90
69316;BME280;56445;43.552;5.034;2022-07-09T14:55:58;101629.97;;;48.41;13.21
69316;BME280;56445;43.552;5.034;2022-07-09T14:58:25;101628.25;;;48.43;13.58
69316;BME280;56445;43.552;5.034;2022-07-09T15:00:53;101630.66;;;48.45;13.43
69316;BME280;56445;43.552;5.034;2022-07-09T15:03:21;101617.09;;;48.33;13.83
69316;BME280;56445;43.552;5.034;2022-07-09T15:05:48;101627.31;;;48.34;13.43
69316;BME280;56445;43.552;5.034;2022-07-09T15:08:16;101619.59;;;48.31;13.35
69316;BME280;56445;43.552;5.034;2022-07-09T15:10:43;101610.06;;;48.21;13.68
69316;BME280;56445;43.552;5.034;2022-07-09T15:13:10;101626.41;;;48.20;13.39
69316;BME280;56445;43.552;5.034;2022-07-09T15:15:37;101632.50;;;48.22;13.41
69316;BME280;56445;43.552;5.034;2022-07-09T15:18:04;101622.59;;;48.11;13.22
69316;BME280;56445;43.552;5.034;2022-07-09T15:20:33;101618.84;;;48.14;13.46
69316;BME280;56445;43.552;5.034;2022-07-09T15:23:00;101605.75;;;48.00;13.51
69316;BME280;56445;43.552;5.034;2022-07-09T15:25:28;101609.16;;;47.95;13.31
69316;BME280;56445;43.552;5.034;2022-07-09T15:27:56;101606.34;;;47.91;13.14
69316;BME280;56445;43.552;5.034;2022-07-09T15:30:23;101613.34;;;47.90;13.31
69316;BME280;56445;43.552;5.034;2022-07-09T15:32:50;101596.84;;;47.81;13.08
69316;BME280;56445;43.552;5.034;2022-07-09T15:35:18;101598.97;;;47.77;13.24
69316;BME280;56445;43.552;5.034;2022-07-09T15:37:45;101601.03;;;47.77;13.30
69316;BME280;56445;43.552;5.034;2022-07-09T15:40:13;101605.94;;;47.76;13.41
69316;BME280;56445;43.552;5.034;2022-07-09T15:42:43;101597.53;;;47.69;13.21
69316;BME280;56445;43.552;5.034;2022-07-09T15:45:11;101615.41;;;47.73;13.27
69316;BME280;56445;43.552;5.034;2022-07-09T15:47:40;101586.66;;;47.64;13.25
69316;BME280;56445;43.552;5.034;2022-07-09T15:50:17;101588.69;;;47.63;13.17
69316;BME280;56445;43.552;5.034;2022-07-09T15:52:44;101585.97;;;47.60;13.07
69316;BME280;56445;43.552;5.034;2022-07-09T15:55:11;101594.06;;;47.61;13.45
69316;BME280;56445;43.552;5.034;2022-07-09T15:57:39;101602.19;;;47.63;13.46
69316;BME280;56445;43.552;5.034;2022-07-09T16:00:09;101584.84;;;47.54;13.16
69316;BME280;56445;43.552;5.034;2022-07-09T16:02:37;101590.69;;;47.50;13.22
69316;BME280;56445;43.552;5.034;2022-07-09T16:05:06;101576.13;;;47.44;13.39
69316;BME280;56445;43.552;5.034;2022-07-09T16:07:34;101585.03;;;47.46;13.19
69316;BME280;56445;43.552;5.034;2022-07-09T16:10:02;101585.84;;;47.47;13.08
69316;BME280;56445;43.552;5.034;2022-07-09T16:12:29;101579.22;;;47.34;13.13
69316;BME280;56445;43.552;5.034;2022-07-09T16:15:25;101588.63;;;47.34;13.32
69316;BME280;56445;43.552;5.034;2022-07-09T16:17:54;101586.75;;;47.27;13.31
69316;BME280;56445;43.552;5.034;2022-07-09T16:20:24;101582.28;;;47.26;13.48
69316;BME280;56445;43.552;5.034;2022-07-09T16:22:52;101596.94;;;47.28;13.11
69316;BME280;56445;43.552;5.034;2022-07-09T16:25:20;101572.34;;;47.15;13.47
69316;BME280;56445;43.552;5.034;2022-07-09T16:27:48;101570.22;;;47.19;13.46
69316;BME280;56445;43.552;5.034;2022-07-09T16:30:15;101563.41;;;47.13;13.24
69316;BME280;56445;43.552;5.034;2022-07-09T16:32:42;101571.91;;;47.16;13.28
69316;BME280;56445;43.552;5.034;2022-07-09T16:35:10;101581.22;;;47.20;13.42
69316;BME280;56445;43.552;5.034;2022-07-09T16:37:37;101563.13;;;47.07;13.12
69316;BME280;56445;43.552;5.034;2022-07-09T16:40:06;101581.00;;;47.11;13.43
69316;BME280;56445;43.552;5.034;2022-07-09T16:42:33;101572.88;;;47.09;13.30
69316;BME280;56445;43.552;5.034;2022-07-09T16:45:01;101557.59;;;47.00;13.13
69316;BME280;56445;43.552;5.034;2022-07-09T16:47:28;101550.19;;;47.02;13.16
69316;BME280;56445;43.552;5.034;2022-07-09T16:49:55;101559.84;;;47.08;13.12
69316;BME280;56445;43.552;5.034;2022-07-09T16:52:32;101544.66;;;46.95;13.37
69316;BME280;56445;43.552;5.034;2022-07-09T16:55:00;101538.59;;;46.93;13.25
69316;BME280;56445;43.552;5.034;2022-07-09T16:57:27;101534.94;;;46.93;13.26
69316;BME280;56445;43.552;5.034;2022-07-09T16:59:55;101541.00;;;46.95;13.03
69316;BME280;56445;43.552;5.034;2022-07-09T17:02:37;101533.22;;;46.95;12.97
69316;BME280;56445;43.552;5.034;2022-07-09T17:05:05;101520.47;;;46.83;13.18
69316;BME280;56445;43.552;5.034;2022-07-09T17:07:33;101522.41;;;46.86;12.95
69316;BME280;56445;43.552;5.034;2022-07-09T17:10:00;101521.25;;;46.84;13.13
69316;BME280;56445;43.552;5.034;2022-07-09T17:12:28;101535.00;;;46.89;12.93
69316;BME280;56445;43.552;5.034;2022-07-09T17:14:56;101516.44;;;46.81;12.94
69316;BME280;56445;43.552;5.034;2022-07-09T17:17:26;101519.66;;;46.83;12.87
69316;BME280;56445;43.552;5.034;2022-07-09T17:19:54;101519.78;;;46.76;13.23
69316;BME280;56445;43.552;5.034;2022-07-09T17:22:21;101517.38;;;46.74;13.15
69316;BME280;56445;43.552;5.034;2022-07-09T17:24:48;101522.22;;;46.77;12.92
69316;BME280;56445;43.552;5.034;2022-07-09T17:27:15;101519.16;;;46.68;12.93
69316;BME280;56445;43.552;5.034;2022-07-09T17:29:42;101507.09;;;46.60;13.08
69316;BME280;56445;43.552;5.034;2022-07-09T17:32:16;101494.59;;;46.54;12.73
69316;BME280;56445;43.552;5.034;2022-07-09T17:34:43;101518.00;;;46.65;12.91
69316;BME280;56445;43.552;5.034;2022-07-09T17:37:12;101508.94;;;46.50;13.25
69316;BME280;56445;43.552;5.034;2022-07-09T17:39:39;101503.31;;;46.47;12.63
69316;BME280;56445;43.552;5.034;2022-07-09T17:42:06;101498.53;;;46.40;13.08
69316;BME280;56445;43.552;5.034;2022-07-09T17:44:33;101490.50;;;46.35;12.89
69316;BME280;56445;43.552;5.034;2022-07-09T17:47:01;101508.66;;;46.45;12.98
69316;BME280;56445;43.552;5.034;2022-07-09T17:49:28;101496.75;;;46.30;12.81
69316;BME280;56445;43.552;5.034;2022-07-09T17:51:55;101486.56;;;46.29;12.85
69316;BME280;56445;43.552;5.034;2022-07-09T17:54:23;101480.59;;;46.23;12.89
69316;BME280;56445;43.552;5.034;2022-07-09T17:56:50;101488.25;;;46.26;12.93
69316;BME280;56445;43.552;5.034;2022-07-09T17:59:17;101481.97;;;46.15;12.71
69316;BME280;56445;43.552;5.034;2022-07-09T18:01:44;101475.53;;;46.11;12.76
69316;BME280;56445;43.552;5.034;2022-07-09T18:04:14;101488.50;;;46.16;12.76
69316;BME280;56445;43.552;5.034;2022-07-09T18:06:45;101466.09;;;45.94;12.80
69316;BME280;56445;43.552;5.034;2022-07-09T18:09:23;101489.88;;;46.07;12.85
69316;BME280;56445;43.552;5.034;2022-07-09T18:11:50;101475.44;;;45.95;12.67
69316;BME280;56445;43.552;5.034;2022-07-09T18:14:17;101474.50;;;45.81;12.84
69316;BME280;56445;43.552;5.034;2022-07-09T18:16:44;101472.06;;;45.80;12.74
69316;BME280;56445;43.552;5.034;2022-07-09T18:19:12;101484.31;;;45.80;12.99
69316;BME280;56445;43.552;5.034;2022-07-09T18:21:39;101472.91;;;45.80;12.77
69316;BME280;56445;43.552;5.034;2022-07-09T18:24:06;101481.75;;;45.86;12.87
69316;BME280;56445;43.552;5.034;2022-07-09T18:26:33;101467.41;;;45.69;12.77
69316;BME280;56445;43.552;5.034;2022-07-09T18:29:01;101473.22;;;45.62;12.48
69316;BME280;56445;43.552;5.034;2022-07-09T18:31:29;101487.66;;;45.75;12.83
69316;BME280;56445;43.552;5.034;2022-07-09T18:33:57;101464.38;;;45.57;12.41
69316;BME280;56445;43.552;5.034;2022-07-09T18:36:24;101458.44;;;45.47;12.96
69316;BME280;56445;43.552;5.034;2022-07-09T18:39:32;101479.34;;;45.61;12.64
69316;BME280;56445;43.552;5.034;2022-07-09T18:42:36;101471.88;;;45.47;12.82
69316;BME280;56445;43.552;5.034;2022-07-09T18:45:18;101470.03;;;45.37;12.53
69316;BME280;56445;43.552;5.034;2022-07-09T18:47:59;101479.25;;;45.44;12.70
69316;BME280;56445;43.552;5.034;2022-07-09T18:50:32;101477.75;;;45.36;12.90
69316;BME280;56445;43.552;5.034;2022-07-09T18:53:00;101481.88;;;45.35;12.85
69316;BME280;56445;43.552;5.034;2022-07-09T18:58:41;101507.25;;;45.49;12.87
69316;BME280;56445;43.552;5.034;2022-07-09T19:01:21;101503.66;;;45.45;12.74
69316;BME280;56445;43.552;5.034;2022-07-09T19:04:11;101495.75;;;45.33;12.32
69316;BME280;56445;43.552;5.034;2022-07-09T19:13:59;101485.91;;;45.10;12.73
69316;BME280;56445;43.552;5.034;2022-07-09T19:20:07;101493.34;;;45.04;12.75
69316;BME280;56445;43.552;5.034;2022-07-09T19:23:09;101508.31;;;45.08;12.85
69316;BME280;56445;43.552;5.034;2022-07-09T19:26:12;101520.44;;;45.12;12.83
69316;BME280;56445;43.552;5.034;2022-07-09T19:29:21;101510.03;;;45.02;12.79
69316;BME280;56445;43.552;5.034;2022-07-09T19:32:20;101505.59;;;45.01;12.96
69316;BME280;56445;43.552;5.034;2022-07-09T19:35:37;101487.19;;;44.79;12.88
69316;BME280;56445;43.552;5.034;2022-07-09T19:39:16;101476.75;;;44.72;12.76
69316;BME280;56445;43.552;5.034;2022-07-09T19:42:12;101491.66;;;44.80;13.05
69316;BME280;56445;43.552;5.034;2022-07-09T19:48:32;101497.88;;;44.71;12.79
69316;BME280;56445;43.552;5.034;2022-07-09T19:51:11;101505.09;;;44.79;13.02
69316;BME280;56445;43.552;5.034;2022-07-09T19:53:38;101495.88;;;44.71;12.78
69316;BME280;56445;43.552;5.034;2022-07-09T19:56:06;101509.53;;;44.80;13.24
69316;BME280;56445;43.552;5.034;2022-07-09T19:58:33;101519.38;;;44.76;13.06
69316;BME280;56445;43.552;5.034;2022-07-09T20:01:01;101519.44;;;44.72;12.88
69316;BME280;56445;43.552;5.034;2022-07-09T20:03:28;101518.34;;;44.62;12.91
69316;BME280;56445;43.552;5.034;2022-07-09T20:05:55;101525.63;;;44.63;13.16
69316;BME280;56445;43.552;5.034;2022-07-09T20:08:22;101516.34;;;44.59;13.16
69316;BME280;56445;43.552;5.034;2022-07-09T20:10:49;101535.47;;;44.59;13.26
69316;BME280;56445;43.552;5.034;2022-07-09T20:13:17;101529.41;;;44.57;13.08
69316;BME280;56445;43.552;5.034;2022-07-09T20:15:44;101518.09;;;44.49;12.87
69316;BME280;56445;43.552;5.034;2022-07-09T20:18:11;101501.16;;;44.39;13.13
69316;BME280;56445;43.552;5.034;2022-07-09T20:20:39;101537.63;;;44.47;13.25
69316;BME280;56445;43.552;5.034;2022-07-09T20:23:09;101527.09;;;44.44;12.87
69316;BME280;56445;43.552;5.034;2022-07-09T20:25:36;101526.00;;;44.34;13.02
69316;BME280;56445;43.552;5.034;2022-07-09T20:28:04;101521.53;;;44.33;13.00
69316;BME280;56445;43.552;5.034;2022-07-09T20:30:31;101525.22;;;44.34;13.23
69316;BME280;56445;43.552;5.034;2022-07-09T20:32:58;101530.53;;;44.32;12.83
69316;BME280;56445;43.552;5.034;2022-07-09T20:35:26;101520.78;;;44.29;13.15
69316;BME280;56445;43.552;5.034;2022-07-09T20:37:53;101536.25;;;44.28;13.05
69316;BME280;56445;43.552;5.034;2022-07-09T20:40:20;101521.72;;;44.19;13.07
69316;BME280;56445;43.552;5.034;2022-07-09T20:42:47;101519.38;;;44.14;12.97
69316;BME280;56445;43.552;5.034;2022-07-09T20:45:15;101518.50;;;44.17;13.11
69316;BME280;56445;43.552;5.034;2022-07-09T20:47:42;101512.94;;;44.06;12.77
69316;BME280;56445;43.552;5.034;2022-07-09T20:50:09;101539.22;;;44.18;12.89
69316;BME280;56445;43.552;5.034;2022-07-09T20:52:37;101535.19;;;44.15;13.32
69316;BME280;56445;43.552;5.034;2022-07-09T20:55:05;101517.88;;;43.99;13.16
69316;BME280;56445;43.552;5.034;2022-07-09T20:57:34;101551.50;;;44.11;13.06
69316;BME280;56445;43.552;5.034;2022-07-09T21:00:02;101528.44;;;43.98;13.06
69316;BME280;56445;43.552;5.034;2022-07-09T21:02:29;101538.09;;;44.08;13.29
69316;BME280;56445;43.552;5.034;2022-07-09T21:04:56;101544.63;;;44.05;12.67
69316;BME280;56445;43.552;5.034;2022-07-09T21:07:23;101543.81;;;44.04;12.99
69316;BME280;56445;43.552;5.034;2022-07-09T21:09:51;101543.00;;;44.04;13.05
69316;BME280;56445;43.552;5.034;2022-07-09T21:12:20;101557.66;;;44.02;13.41
69316;BME280;56445;43.552;5.034;2022-07-09T21:14:47;101542.25;;;43.96;13.07
69316;BME280;56445;43.552;5.034;2022-07-09T21:17:14;101541.47;;;43.95;13.15
69316;BME280;56445;43.552;5.034;2022-07-09T21:19:59;101549.69;;;43.86;13.15
69316;BME280;56445;43.552;5.034;2022-07-09T21:22:26;101547.31;;;43.81;12.85
69316;BME280;56445;43.552;5.034;2022-07-09T21:24:58;101549.78;;;43.79;13.31
69316;BME280;56445;43.552;5.034;2022-07-09T21:27:25;101534.41;;;43.73;12.86
69316;BME280;56445;43.552;5.034;2022-07-09T21:29:52;101535.25;;;43.70;13.12
69316;BME280;56445;43.552;5.034;2022-07-09T21:32:20;101557.91;;;43.77;13.08
69316;BME280;56445;43.552;5.034;2022-07-09T21:34:47;101537.28;;;43.66;13.31
69316;BME280;56445;43.552;5.034;2022-07-09T21:37:14;101567.25;;;43.78;12.86
69316;BME280;56445;43.552;5.034;2022-07-09T21:39:42;101559.16;;;43.72;12.87
69316;BME280;56445;43.552;5.034;2022-07-09T21:42:09;101556.38;;;43.69;13.23
69316;BME280;56445;43.552;5.034;2022-07-09T21:44:37;101540.59;;;43.61;13.20
69316;BME280;56445;43.552;5.034;2022-07-09T21:47:04;101536.56;;;43.54;12.86
69316;BME280;56445;43.552;5.034;2022-07-09T21:49:32;101527.28;;;43.50;13.34